Bookmark and Share
Track history (hours):
 

CMA CGM La Boussole

Last reported at 2014-Apr-09 00:21 UTC. Time now 2014-Apr-20 11:41 UTC.
Position N 35°09' W 011°52'.
Warning: this ship's position is 11 days out of date.

Length 210.1 m; beam 30.2 m; draft 11.5 m.

Type: Ship. MMSI: 636090821.

NotesDate/timePositionNaut miles runAvg speedWind from/ knotsBaromVisibWave heightAir tempDewpointWater temp
2014-Apr-09 00:21N 35°09' W 011°52'9716.4
2014-Apr-08 18:26N 35°26' W 009°55'3216.2
2014-Apr-08 16:26N 35°31' W 009°15'7915.9
2014-Apr-08 11:28N 35°45' W 007°40'1415.3
2014-Apr-08 10:32N 35°48' W 007°23'6716.1
2014-Apr-08 06:22N 35°57' W 006°01'1416.7
2014-Apr-08 05:33N 35°57' W 005°44'12 1.5
2014-Apr-07 21:33N 35°54' W 005°30'3 2.6
2014-Apr-07 20:28N 35°54' W 005°33'1 1.0
2014-Apr-07 19:29N 35°55' W 005°32'25315.6
2014-Apr-07 03:12N 37°30' W 000°40'914.4
2014-Apr-07 02:33N 37°37' W 000°31'1414.4
2014-Apr-07 01:33N 37°49' W 000°21'149 4.5
2014-Apr-05 16:32N 40°02' E 001°05'1414.1
2014-Apr-05 15:34N 40°14' E 001°15'1414.2
2014-Apr-05 14:33N 40°25' E 001°26'1414.4
2014-Apr-05 13:33N 40°37' E 001°36'1515.0
2014-Apr-05 12:33N 40°50' E 001°47'1514.7
2014-Apr-05 11:33N 41°02' E 001°58'1414.1
2014-Apr-05 10:33N 41°14' E 002°08'8 1.4
2014-Apr-05 05:09N 41°21' E 002°10'0 0.0
2014-Apr-05 04:33N 41°21' E 002°10'0 0.0
2014-Apr-04 20:29N 41°21' E 002°10'0 0.1
2014-Apr-04 17:32N 41°21' E 002°10'7 5.3
2014-Apr-04 16:15N 41°15' E 002°15'1 2.0
2014-Apr-04 15:33N 41°14' E 002°16'1111.4
2014-Apr-04 14:33N 41°20' E 002°29'1512.6
2014-Apr-04 13:22N 41°26' E 002°47'1012.7
2014-Apr-04 12:33N 41°30' E 003°00'1312.7
2014-Apr-04 11:32N 41°40' E 003°11'1313.2
2014-Apr-04 10:33N 41°49' E 003°23'1313.0
2014-Apr-04 09:33N 41°59' E 003°34'1212.3
2014-Apr-04 08:33N 42°09' E 003°45'1312.6
2014-Apr-04 07:33N 42°18' E 003°57'1212.2
2014-Apr-04 06:33N 42°27' E 004°08'1312.5
2014-Apr-04 05:31N 42°37' E 004°19'2512.9
2014-Apr-04 03:34N 42°56' E 004°41'1312.7
2014-Apr-04 02:33N 43°05' E 004°53'1111.4
2014-Apr-04 01:33N 43°16' E 004°59'1010.2
2014-Apr-04 00:33N 43°24' E 004°52'0 0.4
2014-Apr-03 23:32N 43°25' E 004°51'0 0.0
2014-Apr-03 22:28N 43°25' E 004°51'0 0.0
2014-Apr-03 21:31N 43°25' E 004°51'0 0.0
2014-Apr-03 20:31N 43°25' E 004°51'0 0.0
2014-Apr-03 19:33N 43°25' E 004°51'0 0.0
2014-Apr-03 18:32N 43°25' E 004°51'0 0.0
2014-Apr-03 17:32N 43°25' E 004°51'0 0.0
2014-Apr-03 16:33N 43°25' E 004°51'0 0.0
2014-Apr-03 15:28N 43°25' E 004°51'0 0.0
2014-Apr-03 14:31N 43°25' E 004°51'0 0.0
2014-Apr-03 13:28N 43°25' E 004°51'0 0.0
2014-Apr-03 12:32N 43°25' E 004°51'0 0.0
2014-Apr-03 11:33N 43°25' E 004°51'0 0.0
2014-Apr-03 10:32N 43°25' E 004°51'0 0.0
2014-Apr-03 09:32N 43°25' E 004°51'3 3.5
2014-Apr-03 08:33N 43°24' E 004°55'9 9.4
2014-Apr-03 07:34N 43°15' E 005°01'1817.5
2014-Apr-03 06:33N 43°05' E 005°21'2520.1
2014-Apr-03 05:19N 42°53' E 005°51'2120.2
2014-Apr-03 04:16N 42°51' E 006°20'1419.3
2014-Apr-03 03:33N 42°55' E 006°38'2020.4
2014-Apr-03 02:33N 43°07' E 007°00'2120.7
2014-Apr-03 01:33N 43°19' E 007°23'6720.5
2014-Apr-02 22:17N 44°02' E 008°34'1519.7
2014-Apr-02 21:33N 44°13' E 008°48'1212.2
2014-Apr-02 20:34N 44°24' E 008°55'1 0.6
2014-Apr-02 19:33N 44°24' E 008°54'0 0.0
2014-Apr-02 18:33N 44°24' E 008°54'0 0.0
2014-Apr-02 17:32N 44°24' E 008°54'0 0.0
2014-Apr-02 16:32N 44°24' E 008°54'0 0.0
2014-Apr-02 15:31N 44°24' E 008°54'0 0.0
2014-Apr-02 14:31N 44°24' E 008°54'0 0.0
2014-Apr-02 13:33N 44°24' E 008°54'0 0.0
2014-Apr-02 12:33N 44°24' E 008°54'0 0.0
2014-Apr-02 11:33N 44°24' E 008°54'0 0.0
2014-Apr-02 10:32N 44°24' E 008°54'0 0.0
2014-Apr-02 09:29N 44°24' E 008°54'0 0.0
2014-Apr-02 08:28N 44°24' E 008°54'0 0.0
2014-Apr-02 07:31N 44°24' E 008°54'0 0.0
2014-Apr-02 06:33N 44°24' E 008°54'0 0.0
2014-Apr-02 05:33N 44°24' E 008°54'0 0.0
2014-Apr-02 04:33N 44°24' E 008°54'0 0.0
2014-Apr-02 03:32N 44°24' E 008°54'0 0.0
2014-Apr-02 02:32N 44°24' E 008°54'0 0.0
2014-Apr-02 01:31N 44°24' E 008°54'0 0.0
2014-Apr-02 00:31N 44°24' E 008°54'0 0.0
2014-Apr-01 23:33N 44°24' E 008°54'0 0.0
2014-Apr-01 22:33N 44°24' E 008°54'0 0.0
2014-Apr-01 21:30N 44°24' E 008°54'0 0.0
2014-Apr-01 20:32N 44°24' E 008°54'0 0.0
2014-Apr-01 19:32N 44°24' E 008°54'0 0.0
2014-Apr-01 18:28N 44°24' E 008°54'0 0.0
2014-Apr-01 17:31N 44°24' E 008°54'3 3.0
2014-Apr-01 16:33N 44°23' E 008°57'1313.3
2014-Apr-01 15:34N 44°12' E 009°08'1716.6
2014-Apr-01 14:34N 43°59' E 009°22'1817.5
2014-Apr-01 13:34N 43°45' E 009°37'1817.7
2014-Apr-01 12:34N 43°33' E 009°56'1514.8
2014-Apr-01 11:33N 43°32' E 010°16'3 2.8
2014-Apr-01 10:31N 43°35' E 010°18'0 0.0
2014-Apr-01 09:33N 43°35' E 010°18'0 0.0
2014-Apr-01 08:33N 43°35' E 010°18'0 0.0
2014-Apr-01 07:32N 43°35' E 010°18'0 0.0
2014-Apr-01 06:29N 43°35' E 010°18'0 0.0
2014-Apr-01 05:31N 43°35' E 010°18'0 0.0
2014-Apr-01 04:28N 43°35' E 010°18'0 0.0
2014-Apr-01 03:31N 43°35' E 010°18'0 0.0
2014-Apr-01 02:33N 43°35' E 010°18'0 0.0
2014-Apr-01 01:33N 43°35' E 010°18'0 0.0
2014-Apr-01 00:32N 43°35' E 010°18'0 0.0
2014-Mar-31 23:32N 43°35' E 010°18'0 0.0
2014-Mar-31 22:32N 43°35' E 010°18'0 0.0
2014-Mar-31 21:31N 43°35' E 010°18'0 0.0
2014-Mar-31 20:31N 43°35' E 010°18'0 0.0
2014-Mar-31 19:30N 43°35' E 010°18'0 0.0
2014-Mar-31 18:33N 43°35' E 010°18'0 0.0
2014-Mar-31 17:32N 43°35' E 010°18'0 0.0
2014-Mar-31 16:32N 43°35' E 010°18'0 0.0
2014-Mar-31 15:31N 43°35' E 010°18'0 0.0
2014-Mar-31 14:32N 43°35' E 010°18'0 0.0
2014-Mar-31 13:28N 43°35' E 010°18'0 0.0
2014-Mar-31 12:33N 43°35' E 010°18'0 0.0
2014-Mar-31 11:33N 43°35' E 010°18'1 0.7
2014-Mar-31 10:33N 43°34' E 010°18'7 6.8
2014-Mar-31 09:33N 43°29' E 010°12'1514.6
2014-Mar-31 08:33N 43°20' E 009°55'1616.5
2014-Mar-31 07:33N 43°17' E 009°33'1616.3
2014-Mar-31 06:33N 43°12' E 009°12'1717.0
2014-Mar-31 05:33N 43°03' E 008°53'1717.2
2014-Mar-31 04:33N 42°53' E 008°33'1717.2
2014-Mar-31 03:34N 42°44' E 008°13'1716.9
2014-Mar-31 02:34N 42°34' E 007°54'24617.0
2014-Mar-30 12:04N 40°19' E 003°21'916.8
2014-Mar-30 11:33N 40°14' E 003°12'1716.6
2014-Mar-30 10:33N 40°04' E 002°54'1717.5
2014-Mar-30 09:34N 39°54' E 002°36'1716.6
2014-Mar-30 08:34N 39°44' E 002°18'1717.1
2014-Mar-30 07:33N 39°34' E 002°00'1717.1
2014-Mar-30 06:33N 39°24' E 001°42'1716.9
2014-Mar-30 05:33N 39°14' E 001°25'  

Dump ship's entire track history

sailing weather and tide predictions

CMA CGM La Boussole — A8FZ6 — position and weather